Time,TemperatureF,DewpointF,PressureIn,WindDirection,WindDirectionDegrees,WindSpeedMPH,WindSpeedGustMPH,Humidity,HourlyPrecipIn,Conditions,Clouds,dailyrainin,SoftwareType,DateUTC
2013-05-14 00:07:00,40.6,36.4,29.44,SSE,157,0.0,2.5,85,0.00,,,0.00,WeatherCatV1.10B1784,2013-05-13 23:07:00,
2013-05-14 00:17:00,41.2,36.6,29.44,ESE,112,2.2,5.1,84,0.00,,,0.00,WeatherCatV1.10B1784,2013-05-13 23:17:00,
2013-05-14 00:27:00,41.5,37.0,29.44,WNW,292,2.7,4.7,84,0.00,,,0.00,WeatherCatV1.10B1784,2013-05-13 23:27:00,
2013-05-14 00:37:00,41.5,37.0,29.44,SE,135,1.3,2.2,84,0.02,,,0.00,WeatherCatV1.10B1784,2013-05-13 23:37:00,
2013-05-14 00:47:00,41.2,36.6,29.43,North,0,0.0,7.8,84,0.02,,,0.00,WeatherCatV1.10B1784,2013-05-13 23:47:00,
2013-05-14 00:57:00,41.4,36.8,29.43,NW,315,0.0,8.5,84,0.02,,,0.00,WeatherCatV1.10B1784,2013-05-13 23:57:00,
2013-05-14 01:07:00,41.4,36.5,29.44,SE,135,0.9,3.4,84,0.02,,,0.02,WeatherCatV1.10B1784,2013-05-14 00:07:00,
2013-05-14 01:17:00,41.2,36.6,29.43,NW,315,0.0,2.7,84,0.02,,,0.02,WeatherCatV1.10B1784,2013-05-14 00:17:00,
2013-05-14 01:27:00,41.4,36.5,29.43,SE,135,5.1,6.0,83,0.02,,,0.02,WeatherCatV1.10B1784,2013-05-14 00:27:00,
2013-05-14 01:37:00,41.7,36.6,29.43,SE,135,3.6,6.9,82,0.00,,,0.02,WeatherCatV1.10B1784,2013-05-14 00:37:00,
2013-05-14 01:47:00,41.7,36.6,29.42,SSE,157,3.4,3.6,82,0.00,,,0.02,WeatherCatV1.10B1784,2013-05-14 00:47:00,
2013-05-14 01:57:00,41.9,36.8,29.42,SW,225,8.1,8.1,82,0.00,,,0.02,WeatherCatV1.10B1784,2013-05-14 00:57:00,
2013-05-14 02:07:00,42.1,36.3,29.41,SSE,157,8.9,8.9,80,0.00,,,0.02,WeatherCatV1.10B1784,2013-05-14 01:07:00,
2013-05-14 02:17:00,42.1,36.3,29.41,SSE,157,8.9,8.9,80,0.00,,,0.02,WeatherCatV1.10B1784,2013-05-14 01:17:00,
2013-05-14 02:27:00,42.4,36.0,29.41,SSE,157,2.5,5.8,78,0.00,,,0.02,WeatherCatV1.10B1784,2013-05-14 01:27:00,
2013-05-14 02:37:00,42.4,36.4,29.40,SSE,157,13.6,13.6,79,0.00,,,0.02,WeatherCatV1.10B1784,2013-05-14 01:37:00,
2013-05-14 02:47:00,42.3,36.2,29.40,SW,225,3.4,8.7,79,0.00,,,0.02,WeatherCatV1.10B1784,2013-05-14 01:47:00,
2013-05-14 02:57:00,42.3,35.9,29.39,South,180,2.7,7.6,78,0.00,,,0.02,WeatherCatV1.10B1784,2013-05-14 01:57:00,
2013-05-14 03:07:00,42.3,35.9,29.40,ESE,112,8.9,8.9,78,0.00,,,0.02,WeatherCatV1.10B1784,2013-05-14 02:07:00,
2013-05-14 03:17:00,42.1,35.7,29.40,NNE,22,0.0,6.9,78,0.00,,,0.02,WeatherCatV1.10B1784,2013-05-14 02:17:00,
2013-05-14 03:27:00,41.7,35.6,29.40,SSE,157,6.9,6.9,79,0.00,,,0.02,WeatherCatV1.10B1784,2013-05-14 02:27:00,
2013-05-14 03:37:00,41.9,35.8,29.39,WNW,292,0.0,5.6,79,0.00,,,0.02,WeatherCatV1.10B1784,2013-05-14 02:37:00,
2013-05-14 03:47:00,41.9,36.1,29.39,WSW,247,9.2,9.2,80,0.00,,,0.02,WeatherCatV1.10B1784,2013-05-14 02:47:00,
2013-05-14 03:57:00,41.9,35.8,29.39,West,270,10.3,10.3,79,0.00,,,0.02,WeatherCatV1.10B1784,2013-05-14 02:57:00,
2013-05-14 04:07:00,42.1,36.1,29.39,NW,315,0.0,4.0,80,0.00,,,0.02,WeatherCatV1.10B1784,2013-05-14 03:07:00,
2013-05-14 04:17:00,41.9,36.1,29.39,South,180,1.6,2.7,80,0.00,,,0.02,WeatherCatV1.10B1784,2013-05-14 03:17:00,
2013-05-14 04:27:00,41.9,36.1,29.38,West,270,3.8,3.8,80,0.00,,,0.02,WeatherCatV1.10B1784,2013-05-14 03:27:00,
2013-05-14 04:37:00,41.7,36.3,29.38,West,270,6.9,6.9,81,0.00,,,0.02,WeatherCatV1.10B1784,2013-05-14 03:37:00,
2013-05-14 04:47:00,41.9,36.4,29.37,East,90,6.5,6.5,81,0.00,,,0.02,WeatherCatV1.10B1784,2013-05-14 03:47:00,
2013-05-14 04:57:00,41.9,36.4,29.37,ESE,112,7.8,7.8,81,0.00,,,0.02,WeatherCatV1.10B1784,2013-05-14 03:57:00,
2013-05-14 05:07:00,41.9,36.4,29.36,South,180,2.9,5.1,81,0.00,,,0.02,WeatherCatV1.10B1784,2013-05-14 04:07:00,
2013-05-14 05:17:00,41.9,36.4,29.37,North,0,2.7,4.9,81,0.00,,,0.02,WeatherCatV1.10B1784,2013-05-14 04:17:00,
2013-05-14 05:27:00,41.9,36.4,29.37,NW,315,7.8,7.8,81,0.00,,,0.02,WeatherCatV1.10B1784,2013-05-14 04:27:00,
2013-05-14 05:37:00,41.9,36.4,29.37,NNW,337,10.3,10.3,81,0.00,,,0.02,WeatherCatV1.10B1784,2013-05-14 04:37:00,
2013-05-14 05:47:00,42.1,36.6,29.37,ESE,112,2.5,4.9,81,0.00,,,0.02,WeatherCatV1.10B1784,2013-05-14 04:47:00,
2013-05-14 05:57:00,42.1,36.6,29.38,WNW,292,1.8,3.1,81,0.00,,,0.02,WeatherCatV1.10B1784,2013-05-14 04:57:00,
2013-05-14 06:07:00,41.9,36.4,29.38,WNW,292,0.0,5.8,81,0.00,,,0.02,WeatherCatV1.10B1784,2013-05-14 05:07:00,
2013-05-14 06:17:00,41.9,36.4,29.38,NNW,337,0.0,2.5,81,0.00,,,0.02,WeatherCatV1.10B1784,2013-05-14 05:17:00,
2013-05-14 06:27:00,41.9,36.4,29.38,East,90,2.2,6.3,81,0.00,,,0.02,WeatherCatV1.10B1784,2013-05-14 05:27:00,
2013-05-14 06:37:00,42.1,36.6,29.38,South,180,2.2,4.2,81,0.00,,,0.02,WeatherCatV1.10B1784,2013-05-14 05:37:00,
2013-05-14 06:47:00,42.4,36.7,29.38,West,270,0.0,4.0,80,0.00,,,0.02,WeatherCatV1.10B1784,2013-05-14 05:47:00,
2013-05-14 06:57:00,42.6,36.5,29.38,SE,135,7.6,7.6,79,0.00,,,0.02,WeatherCatV1.10B1784,2013-05-14 05:57:00,
2013-05-14 07:07:00,42.6,36.9,29.38,SE,135,2.2,4.5,80,0.00,,,0.02,WeatherCatV1.10B1784,2013-05-14 06:07:00,
2013-05-14 07:17:00,42.6,36.9,29.38,ESE,112,7.2,7.2,80,0.00,,,0.02,WeatherCatV1.10B1784,2013-05-14 06:17:00,
2013-05-14 07:27:00,42.4,37.0,29.38,ENE,67,1.3,2.9,81,0.00,,,0.02,WeatherCatV1.10B1784,2013-05-14 06:27:00,
2013-05-14 07:37:00,42.4,37.0,29.38,NNW,337,0.0,1.1,81,0.00,,,0.02,WeatherCatV1.10B1784,2013-05-14 06:37:00,
2013-05-14 07:47:00,42.6,37.2,29.38,SW,225,0.0,3.6,81,0.00,,,0.02,WeatherCatV1.10B1784,2013-05-14 06:47:00,
2013-05-14 07:57:00,42.6,37.2,29.39,SSE,157,7.6,7.6,81,0.00,,,0.02,WeatherCatV1.10B1784,2013-05-14 06:57:00,
2013-05-14 08:07:00,42.4,37.0,29.39,West,270,0.0,1.6,81,0.00,,,0.02,WeatherCatV1.10B1784,2013-05-14 07:07:00,
2013-05-14 08:17:00,42.4,37.0,29.39,ESE,112,0.7,3.6,81,0.00,,,0.02,WeatherCatV1.10B1784,2013-05-14 07:17:00,
2013-05-14 08:27:00,42.6,37.2,29.39,SSE,157,1.6,3.1,81,0.00,,,0.02,WeatherCatV1.10B1784,2013-05-14 07:27:00,
2013-05-14 08:37:00,43.9,38.4,29.39,ESE,112,3.1,3.1,81,0.00,,,0.02,WeatherCatV1.10B1784,2013-05-14 07:37:00,
2013-05-14 08:47:00,45.0,38.9,29.39,West,270,0.0,3.8,79,0.00,,,0.02,WeatherCatV1.10B1784,2013-05-14 07:47:00,
2013-05-14 08:57:00,45.7,39.2,29.38,SSE,157,2.2,6.0,78,0.00,,,0.02,WeatherCatV1.10B1784,2013-05-14 07:57:00,
2013-05-14 09:07:00,44.8,38.7,29.39,SSE,157,2.7,3.1,79,0.00,,,0.02,WeatherCatV1.10B1784,2013-05-14 08:07:00,
2013-05-14 09:17:00,43.5,37.8,29.39,SSE,157,2.7,7.6,80,0.00,,,0.02,WeatherCatV1.10B1784,2013-05-14 08:17:00,
2013-05-14 09:27:00,43.3,37.9,29.38,SSE,157,0.0,5.1,81,0.00,,,0.02,WeatherCatV1.10B1784,2013-05-14 08:27:00,
2013-05-14 09:37:00,44.2,39.1,29.38,West,270,1.1,2.0,82,0.00,,,0.02,WeatherCatV1.10B1784,2013-05-14 08:37:00,
2013-05-14 09:47:00,45.3,39.2,29.38,West,270,1.6,5.4,79,0.00,,,0.02,WeatherCatV1.10B1784,2013-05-14 08:47:00,
2013-05-14 09:57:00,45.9,39.4,29.38,NNE,22,12.3,12.3,78,0.00,,,0.02,WeatherCatV1.10B1784,2013-05-14 08:57:00,
2013-05-14 10:07:00,45.5,39.1,29.38,South,180,2.5,3.6,78,0.00,,,0.02,WeatherCatV1.10B1784,2013-05-14 09:07:00,
2013-05-14 10:17:00,45.3,39.2,29.38,ESE,112,2.5,2.7,79,0.00,,,0.02,WeatherCatV1.10B1784,2013-05-14 09:17:00,
2013-05-14 10:27:00,45.7,39.2,29.39,SE,135,0.0,4.0,78,0.00,,,0.02,WeatherCatV1.10B1784,2013-05-14 09:27:00,
2013-05-14 10:37:00,46.0,38.9,29.39,SE,135,0.0,6.5,76,0.00,,,0.02,WeatherCatV1.10B1784,2013-05-14 09:37:00,
2013-05-14 10:47:00,47.3,39.7,29.38,SE,135,0.0,2.0,75,0.00,,,0.02,WeatherCatV1.10B1784,2013-05-14 09:47:00,
2013-05-14 10:57:00,48.0,40.0,29.38,West,270,0.7,2.5,74,0.00,,,0.02,WeatherCatV1.10B1784,2013-05-14 09:57:00,
2013-05-14 11:07:00,48.6,39.5,29.39,NE,45,3.6,3.6,71,0.00,,,0.02,WeatherCatV1.10B1784,2013-05-14 10:07:00,
2013-05-14 11:17:00,48.7,39.4,29.38,ESE,112,4.0,5.8,70,0.00,,,0.02,WeatherCatV1.10B1784,2013-05-14 10:17:00,
2013-05-14 11:27:00,49.6,38.7,29.38,North,0,0.0,2.9,66,0.00,,,0.02,WeatherCatV1.10B1784,2013-05-14 10:27:00,
2013-05-14 11:37:00,49.8,38.5,29.38,South,180,1.6,3.4,65,0.00,,,0.02,WeatherCatV1.10B1784,2013-05-14 10:37:00,
2013-05-14 11:47:00,49.8,37.7,29.38,East,90,2.9,4.7,63,0.00,,,0.02,WeatherCatV1.10B1784,2013-05-14 10:47:00,
2013-05-14 11:57:00,50.2,38.0,29.37,WNW,292,0.0,2.2,63,0.00,,,0.02,WeatherCatV1.10B1784,2013-05-14 10:57:00,
2013-05-14 12:07:00,51.1,37.7,29.36,SE,135,3.8,10.7,60,0.00,,,0.02,WeatherCatV1.10B1784,2013-05-14 11:07:00,
2013-05-14 12:17:00,51.6,39.4,29.36,NNE,22,1.3,3.4,61,0.00,,,0.02,WeatherCatV1.10B1784,2013-05-14 11:17:00,
2013-05-14 12:27:00,53.1,38.6,29.37,SE,135,3.8,6.9,58,0.00,,,0.02,WeatherCatV1.10B1784,2013-05-14 11:27:00,
2013-05-14 12:37:00,52.7,36.9,29.37,SE,135,4.2,4.5,55,0.00,,,0.02,WeatherCatV1.10B1784,2013-05-14 11:37:00,
2013-05-14 12:47:00,51.6,35.9,29.36,SSW,202,0.0,7.2,54,0.00,,,0.02,WeatherCatV1.10B1784,2013-05-14 11:47:00,
2013-05-14 12:57:00,52.5,37.2,29.36,SE,135,2.0,3.6,57,0.00,,,0.02,WeatherCatV1.10B1784,2013-05-14 11:57:00,
2013-05-14 13:07:00,53.2,38.8,29.36,SE,135,1.8,2.9,58,0.00,,,0.02,WeatherCatV1.10B1784,2013-05-14 12:07:00,
2013-05-14 13:17:00,53.8,38.9,29.36,ESE,112,1.8,8.3,57,0.00,,,0.02,WeatherCatV1.10B1784,2013-05-14 12:17:00,
2013-05-14 13:27:00,54.0,38.6,29.36,SSE,157,2.5,4.9,56,0.00,,,0.02,WeatherCatV1.10B1784,2013-05-14 12:27:00,
2013-05-14 13:37:00,54.7,39.2,29.36,NNW,337,0.0,3.8,56,0.00,,,0.02,WeatherCatV1.10B1784,2013-05-14 12:37:00,
2013-05-14 13:47:00,54.0,38.6,29.36,SSE,157,4.9,7.6,56,0.00,,,0.02,WeatherCatV1.10B1784,2013-05-14 12:47:00,
2013-05-14 13:57:00,50.4,37.8,29.37,SE,135,6.9,8.7,62,0.00,,,0.02,WeatherCatV1.10B1784,2013-05-14 12:57:00,
2013-05-14 14:07:00,49.8,38.9,29.37,WNW,292,0.0,4.5,66,0.00,,,0.02,WeatherCatV1.10B1784,2013-05-14 13:07:00,
2013-05-14 14:17:00,49.3,39.1,29.37,SE,135,0.0,4.2,68,0.00,,,0.02,WeatherCatV1.10B1784,2013-05-14 13:17:00,
2013-05-14 14:27:00,50.7,41.7,29.37,SE,135,5.4,7.4,71,0.00,,,0.02,WeatherCatV1.10B1784,2013-05-14 13:27:00,
2013-05-14 14:37:00,51.8,40.8,29.37,SE,135,3.1,6.5,66,0.00,,,0.02,WeatherCatV1.10B1784,2013-05-14 13:37:00,
2013-05-14 14:47:00,52.5,40.9,29.37,SE,135,3.8,4.5,65,0.00,,,0.02,WeatherCatV1.10B1784,2013-05-14 13:47:00,
2013-05-14 14:57:00,52.7,40.0,29.39,ESE,112,1.3,9.6,62,0.00,,,0.02,WeatherCatV1.10B1784,2013-05-14 13:57:00,
2013-05-14 15:07:00,50.2,39.2,29.38,SSE,157,1.6,5.4,66,0.00,,,0.02,WeatherCatV1.10B1784,2013-05-14 14:07:00,
2013-05-14 15:17:00,50.2,39.6,29.38,SE,135,1.3,4.9,67,0.00,,,0.02,WeatherCatV1.10B1784,2013-05-14 14:17:00,
2013-05-14 15:27:00,50.7,40.1,29.38,WSW,247,1.6,4.9,67,0.00,,,0.02,WeatherCatV1.10B1784,2013-05-14 14:27:00,
2013-05-14 15:37:00,51.6,40.6,29.38,WNW,292,1.3,9.8,66,0.00,,,0.02,WeatherCatV1.10B1784,2013-05-14 14:37:00,
2013-05-14 15:47:00,52.9,41.0,29.38,SSE,157,2.9,8.5,64,0.00,,,0.02,WeatherCatV1.10B1784,2013-05-14 14:47:00,
2013-05-14 15:57:00,55.0,42.6,29.38,WNW,292,0.0,0.9,62,0.00,,,0.02,WeatherCatV1.10B1784,2013-05-14 14:57:00,
2013-05-14 16:07:00,54.5,40.4,29.38,NNE,22,0.0,3.8,59,0.00,,,0.02,WeatherCatV1.10B1784,2013-05-14 15:07:00,
2013-05-14 16:17:00,52.0,38.7,29.38,SE,135,4.7,8.1,60,0.00,,,0.02,WeatherCatV1.10B1784,2013-05-14 15:17:00,
2013-05-14 16:27:00,50.9,39.1,29.39,SSE,157,1.6,1.6,64,0.00,,,0.02,WeatherCatV1.10B1784,2013-05-14 15:27:00,
2013-05-14 16:37:00,50.7,39.5,29.39,SW,225,6.7,6.7,65,0.00,,,0.02,WeatherCatV1.10B1784,2013-05-14 15:37:00,
2013-05-14 16:47:00,49.6,39.1,29.39,SE,135,3.4,4.5,67,0.00,,,0.02,WeatherCatV1.10B1784,2013-05-14 15:47:00,
2013-05-14 16:57:00,48.7,39.4,29.39,WSW,247,0.0,6.0,70,0.00,,,0.02,WeatherCatV1.10B1784,2013-05-14 15:57:00,
2013-05-14 17:07:00,49.8,40.8,29.38,SE,135,0.9,4.5,71,0.00,,,0.02,WeatherCatV1.10B1784,2013-05-14 16:07:00,
2013-05-14 17:17:00,51.1,39.9,29.38,East,90,0.0,0.0,66,0.00,,,0.02,WeatherCatV1.10B1784,2013-05-14 16:17:00,
2013-05-14 17:27:00,52.2,41.1,29.38,SE,135,1.6,3.1,66,0.00,,,0.02,WeatherCatV1.10B1784,2013-05-14 16:27:00,
2013-05-14 17:37:00,53.4,41.5,29.38,SSE,157,2.2,3.6,64,0.00,,,0.02,WeatherCatV1.10B1784,2013-05-14 16:37:00,
2013-05-14 17:47:00,54.3,41.1,29.38,North,0,1.6,5.1,61,0.00,,,0.02,WeatherCatV1.10B1784,2013-05-14 16:47:00,
2013-05-14 17:57:00,54.1,41.4,29.38,SE,135,0.0,5.4,62,0.00,,,0.02,WeatherCatV1.10B1784,2013-05-14 16:57:00,
2013-05-14 18:07:00,54.0,41.2,29.38,SE,135,2.7,2.7,62,0.00,,,0.02,WeatherCatV1.10B1784,2013-05-14 17:07:00,
2013-05-14 18:17:00,53.4,40.3,29.38,South,180,2.7,2.9,61,0.00,,,0.02,WeatherCatV1.10B1784,2013-05-14 17:17:00,
2013-05-14 18:27:00,53.4,40.3,29.38,ENE,67,0.0,4.0,61,0.00,,,0.02,WeatherCatV1.10B1784,2013-05-14 17:27:00,
2013-05-14 18:37:00,53.4,40.3,29.38,ESE,112,3.1,3.1,61,0.00,,,0.02,WeatherCatV1.10B1784,2013-05-14 17:37:00,
2013-05-14 18:47:00,53.8,40.3,29.38,SE,135,0.9,2.0,60,0.00,,,0.02,WeatherCatV1.10B1784,2013-05-14 17:47:00,
2013-05-14 18:57:00,54.1,40.6,29.38,SE,135,1.8,2.2,60,0.00,,,0.02,WeatherCatV1.10B1784,2013-05-14 17:57:00,
2013-05-14 19:07:00,53.4,39.9,29.38,SE,135,0.0,2.5,59,0.00,,,0.02,WeatherCatV1.10B1784,2013-05-14 18:07:00,
2013-05-14 19:17:00,51.8,39.1,29.39,SSE,157,0.0,2.0,62,0.00,,,0.02,WeatherCatV1.10B1784,2013-05-14 18:17:00,
2013-05-14 19:27:00,50.5,38.2,29.38,SSE,157,2.7,2.7,63,0.00,,,0.02,WeatherCatV1.10B1784,2013-05-14 18:27:00,
2013-05-14 19:37:00,49.6,38.3,29.38,South,180,0.0,1.6,65,0.00,,,0.02,WeatherCatV1.10B1784,2013-05-14 18:37:00,
2013-05-14 19:47:00,49.1,37.8,29.39,ESE,112,0.0,1.3,65,0.00,,,0.02,WeatherCatV1.10B1784,2013-05-14 18:47:00,
2013-05-14 19:57:00,48.9,38.4,29.39,WNW,292,0.0,1.8,67,0.00,,,0.02,WeatherCatV1.10B1784,2013-05-14 18:57:00,
2013-05-14 20:07:00,48.7,38.2,29.39,NNW,337,0.0,0.9,67,0.00,,,0.02,WeatherCatV1.10B1784,2013-05-14 19:07:00,
2013-05-14 20:17:00,47.8,37.7,29.39,NW,315,0.9,1.8,68,0.00,,,0.02,WeatherCatV1.10B1784,2013-05-14 19:17:00,
2013-05-14 20:27:00,47.3,37.6,29.39,West,270,0.0,0.0,69,0.00,,,0.02,WeatherCatV1.10B1784,2013-05-14 19:27:00,
2013-05-14 20:37:00,47.5,38.0,29.39,WSW,247,0.0,0.9,70,0.00,,,0.02,WeatherCatV1.10B1784,2013-05-14 19:37:00,
2013-05-14 20:47:00,46.9,37.7,29.39,West,270,0.0,0.0,70,0.00,,,0.02,WeatherCatV1.10B1784,2013-05-14 19:47:00,
2013-05-14 20:57:00,46.2,37.4,29.39,WSW,247,1.8,1.8,71,0.00,,,0.02,WeatherCatV1.10B1784,2013-05-14 19:57:00,
2013-05-14 21:07:00,45.3,36.5,29.40,WSW,247,0.0,0.0,71,0.00,,,0.02,WeatherCatV1.10B1784,2013-05-14 20:07:00,
2013-05-14 21:17:00,44.8,36.3,29.40,WSW,247,0.0,0.0,72,0.00,,,0.02,WeatherCatV1.10B1784,2013-05-14 20:17:00,
2013-05-14 21:27:00,43.9,35.8,29.40,WSW,247,0.0,0.0,73,0.00,,,0.02,WeatherCatV1.10B1784,2013-05-14 20:27:00,
2013-05-14 21:37:00,43.2,35.4,29.41,WSW,247,0.0,0.0,74,0.00,,,0.02,WeatherCatV1.10B1784,2013-05-14 20:37:00,
2013-05-14 21:47:00,42.6,35.6,29.40,WSW,247,0.0,0.0,76,0.00,,,0.02,WeatherCatV1.10B1784,2013-05-14 20:47:00,
2013-05-14 21:57:00,42.4,35.4,29.40,WSW,247,0.0,0.0,76,0.00,,,0.02,WeatherCatV1.10B1784,2013-05-14 20:57:00,
2013-05-14 22:07:00,41.7,35.0,29.41,WSW,247,0.0,0.0,77,0.00,,,0.02,WeatherCatV1.10B1784,2013-05-14 21:07:00,
2013-05-14 22:17:00,41.4,35.3,29.41,WSW,247,0.0,0.0,79,0.00,,,0.02,WeatherCatV1.10B1784,2013-05-14 21:17:00,
2013-05-14 22:27:00,40.8,35.1,29.41,WSW,247,0.0,0.0,80,0.00,,,0.02,WeatherCatV1.10B1784,2013-05-14 21:27:00,
2013-05-14 22:37:00,40.3,34.9,29.41,WNW,292,0.0,0.0,81,0.00,,,0.02,WeatherCatV1.10B1784,2013-05-14 21:37:00,
2013-05-14 22:47:00,39.9,34.6,29.40,WNW,292,0.0,0.0,81,0.00,,,0.02,WeatherCatV1.10B1784,2013-05-14 21:47:00,
2013-05-14 22:57:00,39.6,34.5,29.42,North,0,0.0,0.0,82,0.00,,,0.02,WeatherCatV1.10B1784,2013-05-14 21:57:00,
2013-05-14 23:07:00,39.0,34.3,29.41,North,0,0.0,0.0,83,0.00,,,0.02,WeatherCatV1.10B1784,2013-05-14 22:07:00,
2013-05-14 23:17:00,38.5,33.8,29.41,North,0,0.0,0.0,83,0.00,,,0.02,WeatherCatV1.10B1784,2013-05-14 22:17:00,
2013-05-14 23:27:00,37.9,33.2,29.41,North,0,0.0,0.0,83,0.00,,,0.02,WeatherCatV1.10B1784,2013-05-14 22:27:00,
2013-05-14 23:37:00,37.4,33.0,29.41,North,0,0.0,0.0,84,0.00,,,0.02,WeatherCatV1.10B1784,2013-05-14 22:37:00,
2013-05-14 23:47:00,37.0,32.6,29.41,North,0,0.0,0.0,84,0.00,,,0.02,WeatherCatV1.10B1784,2013-05-14 22:47:00,
2013-05-14 23:57:00,36.5,32.1,29.41,North,0,0.0,0.0,84,0.00,,,0.02,WeatherCatV1.10B1784,2013-05-14 22:57:00,